Time;durP1;ratioP1;P1;durP2;ratioP2;P2;SDS_P1;SDS_P2;PMS_P1;PMS_P2;Temp;Humidity;BMP_temperature;BMP_pressure;BME280_temperature;BME280_humidity;BME280_pressure;Samples;Min_cycle;Max_cycle;Signal;HPM_P1;HPM_P2
2022/09/20 10:17:33;;;;;;;;;;;;;;;;;;5164113;27;19915;-91
2022/09/20 10:20:00;;;;;;;;;;;;;;;;;;5156984;27;19927;-90
2022/09/20 10:22:27;;;;;;;;;;;;;;;;;;5147435;27;19974;-90
2022/09/20 10:24:54;;;;;;;;;;;;;;;;;;5154466;27;19930;-90
2022/09/20 10:27:21;;;;;;;;;;;;;;;;;;5148572;27;19966;-91
2022/09/20 10:29:48;;;;;;;;;;;;;;;;;;5139161;28;19945;-91
2022/09/20 10:32:14;;;;;;;;;;;;;;;;;;5138701;27;20305;-90
2022/09/20 10:34:41;;;;;;;;;;;;;;;;;;5140059;28;20380;-87
2022/09/20 10:37:07;;;;;;;;;;;;;;;;;;5140800;27;20430;-88
2022/09/20 10:39:33;;;;;;;;;;;;;;;;;;5144150;27;20379;-88
2022/09/20 10:46:33;;;;;;;;;;;;;;;;;;5127931;27;1990446;-91
2022/09/20 10:48:59;;;;;;;;;;;;;;;;;;5149054;27;19980;-92
2022/09/20 11:03:35;;;;;;;;;;;;;;;;;;5053219;28;20276;-80
2022/09/20 11:13:00;;;;;;;;;;;;;;;;;;5117718;27;19930;-75
2022/09/20 12:41:03;;;;;;;231.07;224.70;;;;;;;;;;5105257;27;1286635;-71
2022/09/20 12:43:30;;;;;;;240.43;233.73;;;;;;;;;;5128944;27;20051;-76
2022/09/20 12:45:57;;;;;;;175.35;170.15;;;;;;;;;;5139073;27;20052;-71
2022/09/20 12:48:24;;;;;;;266.50;259.45;;;;;;;;;;5136645;27;49642;-81
2022/09/20 12:53:57;;;;;;;227.38;221.05;;;;;;;;;;5112377;28;20067;-76
2022/09/20 12:56:25;;;;;;;;;;;;;;;;;;5114887;28;20044;-82
2022/09/20 12:58:52;;;;;;;;;;;;;;;;;;5107164;28;19929;-82
2022/09/20 13:01:18;;;;;;;;;;;;;;;;;;5107871;28;19928;-74
2022/09/20 13:04:26;;;;;;;;;;;;;;;;;;5109198;27;20010;-74
2022/09/20 13:07:38;;;;;;;;;;;;;;;;;;5060034;27;20505;-75
2022/09/20 13:18:35;;;;;;;10.55;10.15;;;;;;;;;;5081533;27;20374;-73
2022/09/20 13:21:05;;;;;;;11.18;10.75;;;;;;;;;;5076336;28;20118;-73
2022/09/20 13:24:27;;;;;;;77.03;37.40;;;;;;;;;;5059837;27;20690;-71
2022/09/20 13:31:12;;;;;;;2.42;2.30;;;;;;;;;;5082700;27;20429;-89
2022/09/20 13:33:38;;;;;;;4.25;4.03;;;;;;;;;;5045473;28;20061;-89
2022/09/20 13:36:05;;;;;;;3.13;2.92;;;;;;;;;;5052880;28;20107;-89
2022/09/20 13:38:31;;;;;;;3.33;3.13;;;;;;;;;;5053545;28;20045;-89
2022/09/20 13:41:01;;;;;;;3.03;2.83;;;;;;;;;;5058908;28;20072;-89
2022/09/20 13:43:31;;;;;;;2.95;2.75;;;;;;;;;;5055777;28;20243;-89
2022/09/20 13:46:00;;;;;;;3.30;3.00;;;;;;;;;;5059158;28;20094;-89
2022/09/20 13:48:27;;;;;;;3.30;2.78;;;;;;;;;;5053063;28;20045;-89
2022/09/20 13:50:54;;;;;;;2.63;2.42;;;;;;;;;;5054312;28;20049;-89
2022/09/20 13:53:22;;;;;;;1.83;1.73;;;;;;;;;;5054696;28;20109;-89
2022/09/20 13:55:49;;;;;;;2.42;2.22;;;;;;;;;;5055009;28;20045;-89
2022/09/20 13:58:18;;;;;;;3.65;3.40;;;;;;;;;;5053735;28;20037;-89
2022/09/20 14:00:46;;;;;;;3.00;2.80;;;;;;;;;;5054501;28;20049;-89
2022/09/20 14:03:16;;;;;;;2.38;2.17;;;;;;;;;;5055361;28;20645;-89
2022/09/20 14:05:45;;;;;;;4.30;4.05;;;;;;;;;;5054338;28;20045;-89
2022/09/20 14:08:14;;;;;;;5.13;4.63;;;;;;;;;;5056970;28;20053;-89
2022/09/20 14:10:42;;;;;;;3.30;3.10;;;;;;;;;;5056317;28;20049;-89
2022/09/20 14:13:14;;;;;;;3.05;2.85;;;;;;;;;;5056607;28;20049;-89
2022/09/20 14:15:41;;;;;;;2.30;2.10;;;;;;;;;;5054904;28;20131;-89
2022/09/20 14:18:12;;;;;;;3.70;3.53;;;;;;;;;;5059253;28;20103;-89
2022/09/20 14:20:42;;;;;;;3.97;3.78;;;;;;;;;;5058312;28;20057;-90
2022/09/20 14:23:08;;;;;;;;;;;;;;;;;;5057621;28;20104;-90
2022/09/20 14:25:37;;;;;;;2.90;2.70;;;;;;;;;;5059047;28;19920;-89
2022/09/20 14:28:07;;;;;;;2.30;2.13;;;;;;;;;;5057601;28;20489;-90
2022/09/20 14:30:35;;;;;;;4.07;3.88;;;;;;;;;;5056120;28;20061;-89
2022/09/20 14:33:01;;;;;;;1.65;1.52;;;;;;;;;;5056320;28;20041;-89
2022/09/20 14:35:28;;;;;;;2.20;2.10;;;;;;;;;;5058086;28;20099;-89
2022/09/20 14:37:56;;;;;;;2.28;2.15;;;;;;;;;;5057926;28;20045;-90
2022/09/20 14:40:25;;;;;;;3.17;2.97;;;;;;;;;;5054927;28;20073;-89
2022/09/20 14:42:53;;;;;;;1.98;1.30;;;;;;;;;;5045197;28;20076;-89
2022/09/20 14:45:22;;;;;;;3.30;3.17;;;;;;;;;;5043920;28;20038;-89
2022/09/20 14:47:56;;;;;;;3.33;3.03;;;;;;;;;;5042114;28;20048;-90
2022/09/20 14:50:23;;;;;;;2.15;2.05;;;;;;;;;;5044353;28;20055;-89
2022/09/20 14:53:00;;;;;;;2.35;1.52;;;;;;;;;;5043980;28;20107;-88
2022/09/20 14:55:29;;;;;;;2.90;2.72;;;;;;;;;;5045134;28;20567;-89
2022/09/20 14:58:00;;;;;;;2.70;2.50;;;;;;;;;;5045034;28;20049;-89
2022/09/20 15:00:28;;;;;;;1.98;1.88;;;;;;;;;;5044552;28;20076;-90
2022/09/20 15:02:55;;;;;;;1.88;1.77;;;;;;;;;;5044361;28;20050;-89
2022/09/20 15:05:24;;;;;;;2.35;2.22;;;;;;;;;;5042585;28;20045;-89
2022/09/20 15:07:51;;;;;;;3.10;2.90;;;;;;;;;;5042398;28;20068;-89
2022/09/20 15:10:19;;;;;;;3.03;2.83;;;;;;;;;;5044214;28;20053;-89
2022/09/20 15:12:46;;;;;;;3.88;3.58;;;;;;;;;;5042407;28;20057;-89
2022/09/20 15:15:17;;;;;;;2.17;1.70;;;;;;;;;;5045046;28;20041;-89
2022/09/20 15:17:44;;;;;;;2.25;2.15;;;;;;;;;;5045227;28;20103;-89
2022/09/20 15:20:15;;;;;;;2.72;2.63;;;;;;;;;;5044481;28;20046;-89
2022/09/20 15:22:42;;;;;;;1.45;1.35;;;;;;;;;;5045120;28;20050;-89
2022/09/20 15:25:12;;;;;;;3.38;3.17;;;;;;;;;;5040803;28;20084;-89
2022/09/20 15:27:41;;;;;;;2.70;2.35;;;;;;;;;;5040448;28;20084;-89
2022/09/20 15:30:09;;;;;;;2.72;2.53;;;;;;;;;;5040310;28;20068;-89
2022/09/20 15:32:36;;;;;;;3.85;3.55;;;;;;;;;;5040543;28;20069;-89
2022/09/20 15:35:02;;;;;;;3.45;3.22;;;;;;;;;;5040685;28;20057;-90
2022/09/20 15:37:29;;;;;;;3.17;2.97;;;;;;;;;;5040227;28;20110;-89
2022/09/20 15:39:55;;;;;;;1.80;1.70;;;;;;;;;;5042896;28;20107;-90
2022/09/20 15:42:22;;;;;;;2.58;2.42;;;;;;;;;;5043319;28;20068;-90
2022/09/20 15:44:51;;;;;;;2.63;2.42;;;;;;;;;;5042927;28;20046;-90
2022/09/20 15:47:17;;;;;;;2.42;2.22;;;;;;;;;;5042532;28;20105;-90
2022/09/20 15:49:45;;;;;;;3.80;2.25;;;;;;;;;;5042180;28;20054;-90
2022/09/20 15:52:11;;;;;;;4.10;2.60;;;;;;;;;;5039815;28;20060;-89
2022/09/20 15:54:38;;;;;;;2.55;2.13;;;;;;;;;;5038851;28;20053;-90
2022/09/20 15:57:04;;;;;;;3.42;1.67;;;;;;;;;;5041818;28;20041;-89
2022/09/20 15:59:33;;;;;;;3.72;3.42;;;;;;;;;;5036152;28;20045;-90
2022/09/20 16:02:01;;;;;;;2.58;2.38;;;;;;;;;;5036128;28;20197;-90
2022/09/20 16:04:27;;;;;;;2.17;1.80;;;;;;;;;;5040342;28;20061;-90
2022/09/20 16:06:54;;;;;;;3.08;2.78;;;;;;;;;;5037475;28;20053;-90
2022/09/20 16:09:20;;;;;;;1.95;1.83;;;;;;;;;;5041463;28;20068;-90
2022/09/20 16:11:47;;;;;;;1.58;1.45;;;;;;;;;;5041172;28;20597;-90
2022/09/20 16:14:14;;;;;;;3.85;2.80;;;;;;;;;;5043091;28;20050;-90
2022/09/20 16:16:40;;;;;;;3.00;2.70;;;;;;;;;;5043039;28;20041;-90
2022/09/20 16:19:19;;;;;;;3.67;3.35;;;;;;;;;;5038281;28;20069;-89
2022/09/20 16:21:48;;;;;;;7.55;3.22;;;;;;;;;;5034289;28;20049;-90
2022/09/20 16:24:15;;;;;;;3.78;3.03;;;;;;;;;;5024205;28;20042;-90
2022/09/20 16:26:42;;;;;;;4.20;3.63;;;;;;;;;;5018904;28;20068;-90
2022/09/20 16:29:10;;;;;;;3.97;3.65;;;;;;;;;;5036923;28;20075;-90
2022/09/20 16:31:38;;;;;;;3.63;3.33;;;;;;;;;;5035725;28;20140;-90
2022/09/20 16:34:05;;;;;;;2.28;1.85;;;;;;;;;;5038699;28;20057;-89
2022/09/20 16:36:33;;;;;;;3.50;2.95;;;;;;;;;;5041078;28;20049;-90
2022/09/20 16:39:00;;;;;;;4.65;2.30;;;;;;;;;;5041376;28;20068;-90
2022/09/20 16:41:27;;;;;;;1.65;1.42;;;;;;;;;;5042947;28;20049;-90
2022/09/20 16:43:54;;;;;;;2.22;2.03;;;;;;;;;;5038209;28;20171;-89
2022/09/20 16:46:21;;;;;;;3.78;3.47;;;;;;;;;;5037277;28;20068;-90
2022/09/20 16:48:52;;;;;;;2.92;2.63;;;;;;;;;;5037136;28;20046;-90
2022/09/20 16:51:19;;;;;;;3.35;3.05;;;;;;;;;;5037018;28;20081;-90
2022/09/20 16:53:47;;;;;;;2.53;2.17;;;;;;;;;;5036227;28;20037;-90
2022/09/20 16:56:20;;;;;;;1.92;1.38;;;;;;;;;;5033855;28;20053;-90
2022/09/20 16:58:47;;;;;;;1.50;1.25;;;;;;;;;;5042466;28;20052;-90
2022/09/20 17:01:14;;;;;;;2.58;1.92;;;;;;;;;;5041078;28;20579;-91
2022/09/20 17:03:40;;;;;;;2.78;1.77;;;;;;;;;;5042371;28;20042;-92
2022/09/20 17:06:08;;;;;;;2.40;1.90;;;;;;;;;;5042493;28;20049;-90
2022/09/20 17:08:38;;;;;;;2.90;2.40;;;;;;;;;;5042341;28;20099;-91
2022/09/20 17:11:09;;;;;;;3.78;1.92;;;;;;;;;;5041793;28;20050;-91
2022/09/20 17:13:38;;;;;;;3.03;2.72;;;;;;;;;;5041796;28;20123;-91
2022/09/20 17:16:05;;;;;;;3.05;1.98;;;;;;;;;;5041932;28;20072;-90
2022/09/20 17:18:32;;;;;;;3.70;2.58;;;;;;;;;;5041250;28;20045;-91
2022/09/20 17:21:03;;;;;;;1.77;1.05;;;;;;;;;;5042301;28;20513;-91
2022/09/20 17:23:31;;;;;;;1.75;1.33;;;;;;;;;;5042497;28;20045;-90
2022/09/20 17:26:02;;;;;;;4.25;2.30;;;;;;;;;;5041036;28;20053;-90
2022/09/20 17:28:28;;;;;;;;;;;;;;;;;;5042297;28;20053;-90
2022/09/20 17:31:00;;;;;;;2.65;2.15;;;;;;;;;;5041479;28;19925;-89
2022/09/20 17:33:28;;;;;;;1.45;1.35;;;;;;;;;;5040866;28;20488;-89
2022/09/20 17:35:55;;;;;;;1.98;1.80;;;;;;;;;;5041781;28;20065;-89
2022/09/20 17:38:21;;;;;;;2.97;2.08;;;;;;;;;;5041592;28;20060;-89
2022/09/20 17:40:48;;;;;;;1.70;1.60;;;;;;;;;;5042332;28;20072;-88
2022/09/20 17:43:15;;;;;;;2.17;2.00;;;;;;;;;;5042123;28;20054;-89
2022/09/20 17:45:41;;;;;;;3.33;2.08;;;;;;;;;;5041503;28;20046;-88
2022/09/20 17:48:09;;;;;;;2.05;1.33;;;;;;;;;;5040788;28;20049;-88
2022/09/20 17:50:36;;;;;;;2.13;1.88;;;;;;;;;;5041263;28;20085;-88
2022/09/20 17:53:02;;;;;;;2.10;1.90;;;;;;;;;;5041423;28;20050;-89
2022/09/20 17:55:28;;;;;;;1.77;1.55;;;;;;;;;;5041289;28;20050;-89
2022/09/20 17:57:55;;;;;;;1.85;1.73;;;;;;;;;;5040635;28;20045;-89
2022/09/20 18:00:21;;;;;;;2.63;2.30;;;;;;;;;;5041119;28;20046;-88
2022/09/20 18:02:48;;;;;;;1.65;1.55;;;;;;;;;;5041049;28;20042;-89
2022/09/20 18:05:16;;;;;;;3.17;1.88;;;;;;;;;;5040879;28;20732;-89
2022/09/20 18:07:42;;;;;;;1.55;1.45;;;;;;;;;;5040638;28;20397;-89
2022/09/20 18:10:14;;;;;;;1.67;1.58;;;;;;;;;;5040494;28;20049;-89
2022/09/20 18:12:40;;;;;;;3.20;2.97;;;;;;;;;;5020500;28;20046;-88
2022/09/20 18:15:07;;;;;;;2.15;1.95;;;;;;;;;;5029541;28;20041;-90
2022/09/20 18:17:34;;;;;;;1.25;1.08;;;;;;;;;;5045101;28;20053;-89
2022/09/20 18:20:01;;;;;;;1.98;1.33;;;;;;;;;;5045310;28;20468;-89
2022/09/20 18:22:28;;;;;;;1.92;1.52;;;;;;;;;;5045178;28;20084;-89
2022/09/20 18:24:55;;;;;;;2.00;1.48;;;;;;;;;;5042812;28;20046;-91
2022/09/20 18:27:21;;;;;;;2.20;1.67;;;;;;;;;;5044616;28;20041;-92
2022/09/20 18:29:48;;;;;;;3.08;1.80;;;;;;;;;;5045016;28;20053;-91
2022/09/20 18:32:14;;;;;;;4.80;1.60;;;;;;;;;;5030507;28;20085;-91
2022/09/20 18:34:41;;;;;;;1.77;1.67;;;;;;;;;;5029056;28;20045;-91
2022/09/20 18:37:07;;;;;;;2.13;1.60;;;;;;;;;;5045741;28;20045;-91
2022/09/20 18:39:36;;;;;;;2.50;2.22;;;;;;;;;;5045390;28;20080;-89
2022/09/20 18:42:03;;;;;;;4.93;2.88;;;;;;;;;;5043934;28;20080;-89
2022/09/20 18:44:30;;;;;;;4.32;2.30;;;;;;;;;;5044625;28;20517;-89
2022/09/20 18:47:00;;;;;;;4.43;2.38;;;;;;;;;;5044087;28;20073;-89
2022/09/20 18:49:26;;;;;;;4.55;4.15;;;;;;;;;;5043563;28;20049;-89
2022/09/20 18:51:52;;;;;;;2.47;2.28;;;;;;;;;;5044792;28;20485;-90
2022/09/20 18:54:19;;;;;;;2.50;2.30;;;;;;;;;;5044973;28;20118;-90
2022/09/20 18:56:48;;;;;;;2.15;1.80;;;;;;;;;;5043735;28;20050;-89
2022/09/20 18:59:15;;;;;;;2.33;2.00;;;;;;;;;;5045116;28;20053;-90
2022/09/20 19:01:57;;;;;;;2.33;2.17;;;;;;;;;;5044736;28;20468;-87
2022/09/20 19:04:30;;;;;;;3.10;1.50;;;;;;;;;;5044404;28;20049;-88
2022/09/20 19:07:02;;;;;;;2.95;2.72;;;;;;;;;;5045057;28;20088;-88
2022/09/20 19:09:34;;;;;;;2.78;2.47;;;;;;;;;;5044325;28;20875;-88
2022/09/20 19:12:06;;;;;;;2.17;1.98;;;;;;;;;;5043967;28;20053;-89
2022/09/20 19:14:37;;;;;;;1.98;1.77;;;;;;;;;;5044288;28;20839;-89
2022/09/20 19:17:04;;;;;;;2.15;1.88;;;;;;;;;;5045045;28;20058;-90
2022/09/20 19:19:40;;;;;;;2.42;2.03;;;;;;;;;;5045072;28;20164;-89
2022/09/20 19:22:15;;;;;;;2.22;2.03;;;;;;;;;;5044068;28;20046;-89
2022/09/20 19:24:55;;;;;;;2.75;2.47;;;;;;;;;;5043941;28;20046;-89
2022/09/20 19:27:24;;;;;;;2.38;1.95;;;;;;;;;;5044005;28;20050;-89
2022/09/20 19:29:51;;;;;;;3.75;2.00;;;;;;;;;;5044331;28;20058;-89
2022/09/20 19:32:20;;;;;;;2.50;1.98;;;;;;;;;;5044696;28;20045;-89
2022/09/20 19:34:49;;;;;;;1.92;1.77;;;;;;;;;;5044179;28;20042;-89
2022/09/20 19:37:20;;;;;;;1.98;1.63;;;;;;;;;;5044562;28;20072;-89
2022/09/20 19:39:53;;;;;;;3.60;1.70;;;;;;;;;;5043829;28;20107;-89
2022/09/20 19:42:24;;;;;;;2.72;1.63;;;;;;;;;;5044163;28;20076;-90
2022/09/20 19:44:57;;;;;;;2.17;1.88;;;;;;;;;;5044272;28;20041;-90
2022/09/20 19:47:29;;;;;;;1.88;1.58;;;;;;;;;;5044194;28;20569;-90
2022/09/20 19:50:00;;;;;;;2.75;1.23;;;;;;;;;;5044322;28;20041;-90
2022/09/20 19:52:26;;;;;;;1.88;1.70;;;;;;;;;;5043598;28;20080;-90
2022/09/20 19:54:53;;;;;;;3.13;2.85;;;;;;;;;;5042855;28;20042;-90
2022/09/20 19:57:21;;;;;;;2.03;1.83;;;;;;;;;;5041421;28;20115;-89
2022/09/20 19:59:48;;;;;;;3.22;2.28;;;;;;;;;;5042544;28;20049;-89
2022/09/20 20:02:16;;;;;;;2.75;2.15;;;;;;;;;;5041639;28;20111;-89
2022/09/20 20:04:43;;;;;;;1.92;1.73;;;;;;;;;;5042350;28;20069;-89
2022/09/20 20:07:16;;;;;;;4.13;2.15;;;;;;;;;;5042794;28;20120;-89
2022/09/20 20:09:46;;;;;;;2.28;2.08;;;;;;;;;;5042915;28;20105;-89
2022/09/20 20:12:14;;;;;;;2.38;2.15;;;;;;;;;;5041113;28;20049;-89
2022/09/20 20:14:46;;;;;;;2.15;1.80;;;;;;;;;;5040647;28;20113;-89
2022/09/20 20:17:20;;;;;;;4.28;2.60;;;;;;;;;;5041684;28;20119;-89
2022/09/20 20:19:54;;;;;;;2.85;2.63;;;;;;;;;;5041858;28;20050;-90
2022/09/20 20:22:27;;;;;;;3.10;2.85;;;;;;;;;;5041737;28;20041;-89
2022/09/20 20:24:55;;;;;;;3.58;2.20;;;;;;;;;;5042098;28;20104;-89
2022/09/20 20:27:22;;;;;;;1.92;1.67;;;;;;;;;;5022112;28;20046;-90
2022/09/20 20:29:49;;;;;;;1.83;1.60;;;;;;;;;;5022460;28;20108;-89
2022/09/20 20:32:15;;;;;;;1.50;1.38;;;;;;;;;;5041292;28;20084;-90
2022/09/20 20:34:44;;;;;;;2.38;2.17;;;;;;;;;;5042564;28;20045;-89
2022/09/20 20:37:10;;;;;;;2.50;2.35;;;;;;;;;;5040453;28;20049;-89
2022/09/20 20:39:36;;;;;;;2.45;1.45;;;;;;;;;;5041276;28;20068;-90
2022/09/20 20:42:04;;;;;;;2.03;1.48;;;;;;;;;;5043118;28;20716;-90
2022/09/20 20:44:33;;;;;;;3.10;2.00;;;;;;;;;;5043044;28;20046;-89
2022/09/20 20:47:00;;;;;;;1.95;0.98;;;;;;;;;;5042555;28;20052;-89
2022/09/20 20:49:26;;;;;;;1.90;1.35;;;;;;;;;;5043191;28;20053;-89
2022/09/20 20:51:56;;;;;;;2.00;1.60;;;;;;;;;;5042903;28;20079;-89
2022/09/20 20:54:22;;;;;;;1.77;1.67;;;;;;;;;;5042743;28;20109;-89
2022/09/20 20:56:49;;;;;;;1.92;1.42;;;;;;;;;;5042804;28;20045;-89
2022/09/20 20:59:16;;;;;;;2.03;1.83;;;;;;;;;;5043338;28;20050;-89
2022/09/20 21:01:44;;;;;;;2.40;2.20;;;;;;;;;;5042133;28;20049;-89
2022/09/20 21:04:11;;;;;;;1.65;1.55;;;;;;;;;;5042974;28;20132;-90
2022/09/20 21:06:39;;;;;;;3.08;2.85;;;;;;;;;;5042389;28;20045;-90
2022/09/20 21:09:07;;;;;;;2.78;2.55;;;;;;;;;;5042836;28;20109;-90
2022/09/20 21:11:34;;;;;;;1.58;1.27;;;;;;;;;;5040977;28;20046;-89
2022/09/20 21:14:01;;;;;;;2.60;1.98;;;;;;;;;;5041034;28;20068;-90
2022/09/20 21:16:29;;;;;;;2.80;1.90;;;;;;;;;;5042357;28;20041;-90
2022/09/20 21:18:56;;;;;;;1.63;1.52;;;;;;;;;;5043382;28;20390;-90
2022/09/20 21:21:23;;;;;;;2.30;1.90;;;;;;;;;;5041931;28;20045;-90
2022/09/20 21:23:50;;;;;;;2.70;2.05;;;;;;;;;;5041618;28;20053;-90
2022/09/20 21:26:18;;;;;;;2.78;2.55;;;;;;;;;;5040067;28;20064;-90
2022/09/20 21:28:47;;;;;;;3.00;2.55;;;;;;;;;;5040802;28;20061;-90
2022/09/20 21:31:14;;;;;;;2.20;2.00;;;;;;;;;;5041258;28;20054;-89
2022/09/20 21:33:41;;;;;;;2.63;2.42;;;;;;;;;;5041245;28;20046;-90
2022/09/20 21:36:08;;;;;;;3.05;2.78;;;;;;;;;;5040878;28;20076;-90
2022/09/20 21:38:35;;;;;;;3.20;2.70;;;;;;;;;;5041928;28;20113;-90
2022/09/20 21:41:06;;;;;;;1.88;1.33;;;;;;;;;;5041006;28;20046;-90
2022/09/20 21:43:34;;;;;;;2.35;2.08;;;;;;;;;;5040276;28;20069;-90
2022/09/20 21:46:00;;;;;;;1.83;1.70;;;;;;;;;;5041193;28;20041;-89
2022/09/20 21:48:27;;;;;;;3.05;2.75;;;;;;;;;;5040679;28;20050;-90
2022/09/20 21:51:00;;;;;;;2.17;1.90;;;;;;;;;;5041876;28;20045;-90
2022/09/20 21:53:26;;;;;;;3.22;2.85;;;;;;;;;;5043710;28;20182;-90
2022/09/20 21:55:55;;;;;;;2.20;1.90;;;;;;;;;;5045550;28;20045;-90
2022/09/20 21:58:22;;;;;;;2.28;1.85;;;;;;;;;;5046033;28;20441;-90
2022/09/20 22:00:56;;;;;;;2.35;2.15;;;;;;;;;;5046270;28;20041;-90
2022/09/20 22:03:23;;;;;;;2.72;1.98;;;;;;;;;;5044893;28;20053;-90
2022/09/20 22:05:49;;;;;;;1.95;1.48;;;;;;;;;;5044752;28;20049;-90
2022/09/20 22:08:16;;;;;;;2.78;2.58;;;;;;;;;;5043765;28;20045;-90
2022/09/20 22:10:42;;;;;;;2.88;2.67;;;;;;;;;;5043728;28;20045;-90
2022/09/20 22:13:09;;;;;;;6.35;2.55;;;;;;;;;;5023326;28;20054;-90
2022/09/20 22:15:35;;;;;;;2.15;1.63;;;;;;;;;;5025026;28;20099;-90
2022/09/20 22:18:04;;;;;;;2.13;1.58;;;;;;;;;;5044319;28;20559;-90
2022/09/20 22:20:31;;;;;;;3.47;1.40;;;;;;;;;;5045769;28;20046;-90
2022/09/20 22:22:57;;;;;;;7.32;2.35;;;;;;;;;;5044256;28;20050;-90
2022/09/20 22:25:24;;;;;;;2.40;1.75;;;;;;;;;;5045232;28;20111;-90
2022/09/20 22:27:50;;;;;;;1.70;1.02;;;;;;;;;;5044427;28;20072;-90
2022/09/20 22:30:17;;;;;;;2.95;2.67;;;;;;;;;;5043966;28;20122;-90
2022/09/20 22:32:43;;;;;;;2.60;2.17;;;;;;;;;;5043168;28;20076;-90
2022/09/20 22:35:11;;;;;;;5.28;2.85;;;;;;;;;;5044450;28;20046;-90
2022/09/20 22:37:38;;;;;;;3.10;2.03;;;;;;;;;;5043052;28;20077;-90
2022/09/20 22:40:05;;;;;;;2.50;2.30;;;;;;;;;;5044992;28;20049;-90
2022/09/20 22:42:31;;;;;;;1.10;1.00;;;;;;;;;;5045011;28;20049;-90
2022/09/20 22:44:59;;;;;;;5.65;1.88;;;;;;;;;;5045956;28;20060;-90
2022/09/20 22:47:25;;;;;;;3.03;1.98;;;;;;;;;;5045471;28;20049;-90
2022/09/20 22:49:52;;;;;;;2.28;2.08;;;;;;;;;;5045409;28;20041;-90
2022/09/20 22:52:20;;;;;;;2.03;1.73;;;;;;;;;;5043416;28;20053;-90
2022/09/20 22:54:46;;;;;;;2.03;1.80;;;;;;;;;;5043823;28;20049;-90
2022/09/20 22:57:12;;;;;;;2.50;2.30;;;;;;;;;;5043066;28;20105;-90
2022/09/20 22:59:39;;;;;;;3.80;2.05;;;;;;;;;;5044538;28;20076;-89
2022/09/20 23:02:05;;;;;;;2.60;2.22;;;;;;;;;;5044804;28;20076;-90
2022/09/20 23:04:32;;;;;;;3.05;2.35;;;;;;;;;;5044709;28;20049;-90
2022/09/20 23:06:58;;;;;;;2.45;1.33;;;;;;;;;;5045455;28;20041;-90
2022/09/20 23:09:27;;;;;;;2.38;2.17;;;;;;;;;;5045179;28;20042;-90
2022/09/20 23:11:53;;;;;;;3.25;2.53;;;;;;;;;;5037768;28;20073;-90
2022/09/20 23:14:20;;;;;;;2.13;1.88;;;;;;;;;;5024649;28;20042;-90
2022/09/20 23:16:47;;;;;;;2.42;2.22;;;;;;;;;;5028264;28;20041;-91
2022/09/20 23:19:14;;;;;;;2.42;2.15;;;;;;;;;;5042961;28;20087;-90
2022/09/20 23:21:41;;;;;;;2.28;2.05;;;;;;;;;;5044342;28;20046;-90
2022/09/20 23:24:08;;;;;;;2.15;1.75;;;;;;;;;;5044826;28;20042;-90
2022/09/20 23:26:37;;;;;;;2.53;2.20;;;;;;;;;;5044875;28;20060;-90
2022/09/20 23:29:05;;;;;;;2.58;2.33;;;;;;;;;;5043683;28;20498;-90
2022/09/20 23:31:33;;;;;;;2.63;2.42;;;;;;;;;;5044868;28;20138;-90
2022/09/20 23:34:00;;;;;;;2.72;2.00;;;;;;;;;;5044860;28;20049;-90
2022/09/20 23:36:27;;;;;;;2.47;2.28;;;;;;;;;;5044505;28;20057;-90
2022/09/20 23:38:54;;;;;;;2.53;2.33;;;;;;;;;;5043919;28;20047;-90
2022/09/20 23:41:22;;;;;;;2.33;2.13;;;;;;;;;;5043572;28;20114;-89
2022/09/20 23:43:50;;;;;;;3.05;2.22;;;;;;;;;;5043534;28;20555;-90
2022/09/20 23:46:17;;;;;;;2.38;2.03;;;;;;;;;;5042324;28;20049;-90
2022/09/20 23:48:44;;;;;;;2.15;1.52;;;;;;;;;;5043279;28;20053;-89
2022/09/20 23:51:11;;;;;;;2.90;2.58;;;;;;;;;;5043356;28;20107;-89
2022/09/20 23:53:38;;;;;;;2.03;1.77;;;;;;;;;;5042611;28;20053;-89
2022/09/20 23:56:06;;;;;;;3.28;1.95;;;;;;;;;;5043859;28;20049;-90
2022/09/20 23:58:32;;;;;;;2.25;2.10;;;;;;;;;;5043095;28;20065;-89
